createdAt,value
2018-09-18T00:00:07.316Z,49.18
2018-09-18T00:02:39.797Z,49.19
2018-09-18T00:05:12.983Z,49.15
2018-09-18T00:07:45.513Z,48.90
2018-09-18T00:10:18.185Z,48.74
2018-09-18T00:12:53.161Z,48.51
2018-09-18T00:15:26.635Z,48.29
2018-09-18T00:17:59.165Z,48.11
2018-09-18T00:20:33.314Z,47.99
2018-09-18T00:23:06.003Z,47.90
2018-09-18T00:25:38.726Z,47.85
2018-09-18T00:28:12.592Z,47.50
2018-09-18T00:30:46.328Z,47.14
2018-09-18T00:33:19.145Z,46.98
2018-09-18T00:35:53.180Z,46.84
2018-09-18T00:38:25.745Z,46.67
2018-09-18T00:40:58.792Z,46.49
2018-09-18T00:43:31.711Z,46.54
2018-09-18T00:46:04.742Z,46.54
2018-09-18T00:48:37.276Z,46.46
2018-09-18T00:51:10.240Z,46.30
2018-09-18T00:53:43.664Z,46.14
2018-09-18T00:56:16.289Z,46.13
2018-09-18T00:58:49.276Z,46.05
2018-09-18T01:01:21.768Z,45.96
2018-09-18T01:03:54.426Z,46.04
2018-09-18T01:06:28.161Z,45.76
2018-09-18T01:09:01.709Z,45.67
2018-09-18T01:11:34.335Z,45.70
2018-09-18T01:14:12.236Z,45.48
2018-09-18T01:16:44.983Z,45.55
2018-09-18T01:19:17.832Z,45.57
2018-09-18T01:21:50.806Z,45.51
2018-09-18T01:24:23.396Z,45.49
2018-09-18T01:26:55.914Z,45.36
2018-09-18T01:29:29.000Z,45.39
2018-09-18T01:32:02.689Z,45.61
2018-09-18T01:34:35.586Z,45.75
2018-09-18T01:37:09.616Z,45.83
2018-09-18T01:39:45.153Z,45.98
2018-09-18T01:42:17.984Z,46.20
2018-09-18T01:44:51.809Z,46.56
2018-09-18T01:47:24.398Z,46.78
2018-09-18T01:49:57.527Z,46.93
2018-09-18T01:52:30.779Z,47.09
2018-09-18T01:55:03.581Z,47.22
2018-09-18T01:57:36.317Z,47.26
2018-09-18T02:00:08.552Z,47.23
2018-09-18T02:02:41.487Z,47.26
2018-09-18T02:05:16.754Z,47.38
2018-09-18T02:07:49.921Z,47.51
2018-09-18T02:10:22.512Z,47.62
2018-09-18T02:12:55.041Z,47.83
2018-09-18T02:15:27.839Z,47.81
2018-09-18T02:18:00.396Z,47.84
2018-09-18T02:20:32.965Z,47.81
2018-09-18T02:23:07.188Z,47.73
2018-09-18T02:25:39.926Z,47.73
2018-09-18T02:28:12.512Z,47.81
2018-09-18T02:30:46.555Z,47.83
2018-09-18T02:33:24.485Z,47.81
2018-09-18T02:35:57.879Z,47.79
2018-09-18T02:38:32.724Z,48.06
2018-09-18T02:41:05.380Z,48.46
2018-09-18T02:43:37.875Z,48.89
2018-09-18T02:46:11.238Z,49.23
2018-09-18T02:48:44.689Z,49.69
2018-09-18T02:51:17.558Z,49.57
2018-09-18T02:53:50.588Z,49.33
2018-09-18T02:56:23.135Z,48.87
2018-09-18T02:58:55.777Z,48.62
2018-09-18T03:01:29.653Z,48.32
2018-09-18T03:04:02.229Z,48.08
2018-09-18T03:06:34.785Z,48.12
2018-09-18T03:09:09.976Z,48.13
2018-09-18T03:11:42.574Z,48.04
2018-09-18T03:14:15.178Z,48.02
2018-09-18T03:16:49.278Z,48.16
2018-09-18T03:19:21.956Z,48.26
2018-09-18T03:21:54.573Z,48.18
2018-09-18T03:24:27.352Z,48.37
2018-09-18T03:27:00.801Z,48.39
2018-09-18T03:29:33.509Z,48.47
2018-09-18T03:32:07.620Z,48.45
2018-09-18T03:34:40.255Z,48.35
2018-09-18T03:37:13.052Z,48.24
2018-09-18T03:39:46.060Z,48.21
2018-09-18T03:42:18.617Z,48.35
2018-09-18T03:44:51.205Z,48.32
2018-09-18T03:47:26.451Z,48.19
2018-09-18T03:49:59.032Z,48.16
2018-09-18T03:52:31.643Z,48.08
2018-09-18T03:55:04.997Z,48.14
2018-09-18T03:57:37.824Z,48.08
2018-09-18T04:00:10.373Z,48.16
2018-09-18T04:02:44.571Z,48.16
2018-09-18T04:05:17.100Z,48.10
2018-09-18T04:07:49.581Z,48.00
2018-09-18T04:10:23.554Z,48.16
2018-09-18T04:12:56.053Z,48.91
2018-09-18T04:15:30.012Z,48.95
2018-09-18T04:18:03.373Z,49.01
2018-09-18T04:20:36.804Z,48.85
2018-09-18T04:23:09.376Z,48.32
2018-09-18T04:25:44.265Z,48.37
2018-09-18T04:28:17.275Z,48.52
2018-09-18T04:30:49.857Z,48.73
2018-09-18T04:33:23.823Z,48.86
2018-09-18T04:35:58.104Z,49.00
2018-09-18T04:38:30.834Z,49.32
2018-09-18T04:41:04.066Z,49.45
2018-09-18T04:43:36.599Z,49.59
2018-09-18T04:46:09.236Z,49.51
2018-09-18T04:48:42.221Z,49.58
2018-09-18T04:51:14.725Z,49.60
2018-09-18T04:53:48.774Z,49.60
2018-09-18T04:56:22.890Z,49.44
2018-09-18T04:58:55.539Z,49.33
2018-09-18T05:01:28.129Z,49.39
2018-09-18T05:04:01.181Z,49.67
2018-09-18T05:06:33.813Z,49.85
2018-09-18T05:09:11.399Z,49.80
2018-09-18T05:11:43.949Z,49.57
2018-09-18T05:14:16.512Z,49.33
2018-09-18T05:16:49.121Z,49.07
2018-09-18T05:19:22.726Z,48.93
2018-09-18T05:21:55.315Z,48.83
2018-09-18T05:24:27.940Z,48.57
2018-09-18T05:27:04.444Z,48.08
2018-09-18T05:29:36.912Z,47.87
2018-09-18T05:32:09.809Z,47.27
2018-09-18T05:34:42.713Z,46.95
2018-09-18T05:37:17.840Z,46.96
2018-09-18T05:39:51.121Z,46.94
2018-09-18T05:42:24.160Z,46.85
2018-09-18T05:44:57.081Z,46.74
2018-09-18T05:47:30.680Z,46.68
2018-09-18T05:50:03.464Z,46.69
2018-09-18T05:52:36.092Z,46.66
2018-09-18T05:55:11.880Z,46.58
2018-09-18T05:57:44.516Z,46.54
2018-09-18T06:00:23.398Z,46.45
2018-09-18T06:02:58.512Z,46.45
2018-09-18T06:05:33.725Z,46.56
2018-09-18T06:08:09.324Z,46.61
2018-09-18T06:10:41.985Z,46.68
2018-09-18T06:13:15.155Z,46.69
2018-09-18T06:15:48.302Z,46.75
2018-09-18T06:18:20.899Z,46.77
2018-09-18T06:20:56.585Z,46.86
2018-09-18T06:23:29.676Z,46.91
2018-09-18T06:26:02.287Z,46.67
2018-09-18T06:28:35.144Z,46.62
2018-09-18T06:31:08.372Z,46.61
2018-09-18T06:33:41.923Z,46.70
2018-09-18T06:36:16.294Z,46.73
2018-09-18T06:38:49.341Z,46.71
2018-09-18T06:41:22.538Z,46.59
2018-09-18T06:43:58.176Z,46.27
2018-09-18T06:46:32.232Z,45.87
2018-09-18T06:49:04.999Z,45.67
2018-09-18T06:51:38.929Z,45.39
2018-09-18T06:54:14.191Z,45.32
2018-09-18T06:56:48.162Z,45.25
2018-09-18T06:59:21.743Z,44.91
2018-09-18T07:01:55.164Z,44.79
2018-09-18T07:04:29.642Z,44.64
2018-09-18T07:07:06.157Z,44.58
2018-09-18T07:09:38.823Z,44.63
2018-09-18T07:12:11.324Z,44.69
2018-09-18T07:14:45.743Z,44.48
2018-09-18T07:17:22.040Z,44.47
2018-09-18T07:19:56.380Z,44.31
2018-09-18T07:22:30.389Z,44.05
2018-09-18T07:25:03.945Z,43.95
2018-09-18T07:27:37.473Z,43.61
2018-09-18T07:30:16.888Z,43.67
2018-09-18T07:32:51.530Z,43.75
2018-09-18T07:35:26.826Z,43.39
2018-09-18T07:38:01.810Z,43.33
2018-09-18T07:40:35.860Z,43.07
2018-09-18T07:43:11.799Z,43.04
2018-09-18T07:45:46.001Z,43.29
2018-09-18T07:48:18.611Z,43.11
2018-09-18T07:50:52.575Z,43.16
2018-09-18T07:53:29.285Z,43.04
2018-09-18T07:56:03.107Z,42.94
2018-09-18T07:58:35.713Z,43.06
2018-09-18T08:01:12.230Z,42.85
2018-09-18T08:03:45.400Z,42.63
2018-09-18T08:06:18.034Z,42.24
2018-09-18T08:08:50.766Z,41.80
2018-09-18T08:11:28.573Z,41.47
2018-09-18T08:14:03.913Z,40.84
2018-09-18T08:16:37.512Z,39.52
2018-09-18T08:19:11.320Z,37.50
2018-09-18T08:21:43.746Z,36.82
2018-09-18T08:24:17.914Z,35.35
2018-09-18T08:26:52.287Z,34.65
2018-09-18T08:29:26.616Z,34.24
2018-09-18T08:31:59.077Z,33.97
2018-09-18T08:34:32.463Z,34.15
2018-09-18T08:37:05.720Z,33.75
2018-09-18T08:39:41.475Z,33.33
2018-09-18T08:42:13.981Z,33.49
2018-09-18T08:44:50.516Z,33.40
2018-09-18T08:47:24.405Z,33.40
2018-09-18T08:49:58.836Z,33.62
2018-09-18T08:52:33.607Z,33.48
2018-09-18T08:55:09.228Z,33.11
2018-09-18T08:57:42.337Z,32.70
2018-09-18T09:00:16.849Z,32.98
2018-09-18T09:02:51.714Z,33.00
2018-09-18T09:05:24.164Z,32.45
2018-09-18T09:07:57.965Z,32.96
2018-09-18T09:10:30.663Z,33.11
2018-09-18T09:13:03.999Z,32.49
2018-09-18T09:15:41.176Z,32.78
2018-09-18T09:18:15.725Z,32.11
2018-09-18T09:20:49.972Z,32.00
2018-09-18T09:23:22.439Z,31.97
2018-09-18T09:25:58.116Z,31.65
2018-09-18T09:28:31.454Z,31.58
2018-09-18T09:31:05.121Z,31.41
2018-09-18T09:33:39.149Z,31.55
2018-09-18T09:36:12.356Z,30.83
2018-09-18T09:38:47.268Z,31.00
2018-09-18T09:41:19.883Z,30.90
2018-09-18T09:43:53.451Z,30.81
2018-09-18T09:46:26.528Z,31.10
2018-09-18T09:49:00.863Z,31.13
2018-09-18T09:51:34.375Z,31.04
2018-09-18T09:54:08.246Z,30.85
2018-09-18T09:56:43.237Z,31.07
2018-09-18T09:59:16.647Z,31.09
2018-09-18T10:01:57.918Z,31.17
2018-09-18T10:04:30.485Z,30.65
2018-09-18T10:07:04.484Z,30.18
2018-09-18T10:09:40.017Z,30.13
2018-09-18T10:12:13.056Z,29.81
2018-09-18T10:14:46.688Z,29.85
2018-09-18T10:17:21.375Z,29.64
2018-09-18T10:19:56.769Z,29.85
2018-09-18T10:22:30.299Z,30.11
2018-09-18T10:25:03.410Z,30.13
2018-09-18T10:27:36.201Z,29.69
2018-09-18T10:30:09.421Z,30.08
2018-09-18T10:32:44.767Z,29.86
2018-09-18T10:35:17.472Z,30.17
2018-09-18T10:37:50.074Z,29.82
2018-09-18T10:40:24.996Z,29.41
2018-09-18T10:42:58.774Z,29.36
2018-09-18T10:45:32.397Z,29.47
2018-09-18T10:48:06.253Z,29.60
2018-09-18T10:50:39.672Z,29.46
2018-09-18T10:53:12.393Z,29.19
2018-09-18T10:55:46.704Z,28.97
2018-09-18T10:58:21.671Z,29.23
2018-09-18T11:00:57.302Z,29.53
2018-09-18T11:03:29.939Z,29.22
2018-09-18T11:06:03.872Z,29.20
2018-09-18T11:08:39.025Z,28.97
2018-09-18T11:11:11.785Z,29.15
2018-09-18T11:13:49.733Z,28.90
2018-09-18T11:16:23.266Z,28.27
2018-09-18T11:18:55.970Z,28.48
2018-09-18T11:21:29.422Z,28.70
2018-09-18T11:24:05.998Z,28.55
2018-09-18T11:26:38.531Z,28.58
2018-09-18T11:29:11.236Z,28.61
2018-09-18T11:31:44.429Z,28.76
2018-09-18T11:34:19.304Z,28.51
2018-09-18T11:36:53.294Z,28.49
2018-09-18T11:39:26.272Z,28.66
2018-09-18T11:41:59.882Z,28.75
2018-09-18T11:44:34.072Z,29.36
2018-09-18T11:47:10.149Z,29.22
2018-09-18T11:49:42.649Z,28.93
2018-09-18T11:52:20.128Z,28.54
2018-09-18T11:54:52.816Z,28.47
2018-09-18T11:57:26.808Z,28.13
2018-09-18T12:00:04.549Z,28.53
2018-09-18T12:02:38.577Z,28.30
2018-09-18T12:05:11.922Z,27.73
2018-09-18T12:07:45.856Z,26.23
2018-09-18T12:10:18.506Z,25.57
2018-09-18T12:12:55.180Z,25.44
2018-09-18T12:15:27.764Z,25.26
2018-09-18T12:18:02.167Z,25.11
2018-09-18T12:20:38.049Z,25.93
2018-09-18T12:23:11.800Z,25.57
2018-09-18T12:25:45.846Z,22.17
2018-09-18T12:28:18.609Z,21.70
2018-09-18T12:30:52.070Z,22.22
2018-09-18T12:33:26.948Z,22.37
2018-09-18T12:36:00.648Z,22.87
2018-09-18T12:38:33.579Z,23.18
2018-09-18T12:41:09.250Z,23.36
2018-09-18T12:43:46.491Z,23.44
2018-09-18T12:46:19.660Z,22.95
2018-09-18T12:48:55.278Z,23.00
2018-09-18T12:51:28.555Z,22.75
2018-09-18T12:54:01.927Z,22.64
2018-09-18T12:56:45.993Z,23.02
2018-09-18T12:59:26.858Z,23.19
2018-09-18T13:01:59.184Z,22.98
2018-09-18T13:04:33.876Z,22.64
2018-09-18T13:07:06.581Z,22.01
2018-09-18T13:09:40.861Z,22.36
2018-09-18T13:12:14.400Z,22.17
2018-09-18T13:14:48.498Z,21.64
2018-09-18T13:17:22.733Z,21.82
2018-09-18T13:19:58.385Z,21.70
2018-09-18T13:22:31.672Z,21.30
2018-09-18T13:25:07.554Z,21.40
2018-09-18T13:27:40.306Z,21.17
2018-09-18T13:30:16.996Z,21.28
2018-09-18T13:32:50.104Z,21.37
2018-09-18T13:35:25.119Z,20.43
2018-09-18T13:38:05.469Z,20.82
2018-09-18T13:40:38.178Z,20.77
2018-09-18T13:43:11.064Z,20.22
2018-09-18T13:45:46.305Z,19.86
2018-09-18T13:48:20.640Z,19.96
2018-09-18T13:50:56.966Z,20.76
2018-09-18T13:53:37.586Z,21.18
2018-09-18T13:56:13.861Z,20.50
2018-09-18T13:58:48.707Z,20.43
2018-09-18T14:01:27.717Z,20.84
2018-09-18T14:04:01.122Z,21.10
2018-09-18T14:06:34.662Z,21.48
2018-09-18T14:09:10.498Z,21.67
2018-09-18T14:11:43.556Z,22.02
2018-09-18T14:14:16.697Z,22.09
2018-09-18T14:16:51.186Z,22.48
2018-09-18T14:19:24.787Z,22.51
2018-09-18T14:21:59.214Z,22.87
2018-09-18T14:24:34.632Z,22.46
2018-09-18T14:27:07.592Z,22.17
2018-09-18T14:29:40.917Z,22.20
2018-09-18T14:32:15.524Z,22.28
2018-09-18T14:34:50.000Z,22.30
2018-09-18T14:37:23.210Z,22.50
2018-09-18T14:39:57.253Z,22.69
2018-09-18T14:42:30.026Z,22.76
2018-09-18T14:45:06.261Z,22.74
2018-09-18T14:47:39.135Z,22.67
2018-09-18T14:50:13.410Z,22.57
2018-09-18T14:52:48.228Z,22.65
2018-09-18T14:55:23.857Z,22.98
2018-09-18T14:57:57.300Z,23.33
2018-09-18T15:00:30.069Z,23.22
2018-09-18T15:03:05.907Z,23.00
2018-09-18T15:05:42.520Z,23.19
2018-09-18T15:08:18.148Z,23.40
2018-09-18T15:10:52.951Z,23.47
2018-09-18T15:13:27.444Z,23.65
2018-09-18T15:16:01.985Z,24.01
2018-09-18T15:18:36.243Z,24.32
2018-09-18T15:21:10.651Z,24.36
2018-09-18T15:23:46.073Z,23.60
2018-09-18T15:26:21.472Z,23.89
2018-09-18T15:28:55.086Z,23.69
2018-09-18T15:31:35.286Z,23.93
2018-09-18T15:34:09.057Z,23.77
2018-09-18T15:36:41.847Z,23.71
2018-09-18T15:39:16.399Z,23.74
2018-09-18T15:41:49.496Z,23.74
2018-09-18T15:44:27.143Z,24.05
2018-09-18T15:47:03.888Z,23.86
2018-09-18T15:49:43.038Z,23.95
2018-09-18T15:52:17.569Z,24.17
2018-09-18T15:54:51.583Z,24.43
2018-09-18T15:57:24.835Z,24.66
2018-09-18T15:59:59.348Z,25.02
2018-09-18T16:02:32.916Z,25.20
2018-09-18T16:05:07.355Z,25.56
2018-09-18T16:07:41.252Z,26.11
2018-09-18T16:10:14.205Z,26.68
2018-09-18T16:12:50.812Z,26.91
2018-09-18T16:15:28.036Z,26.90
2018-09-18T16:18:03.011Z,26.90
2018-09-18T16:20:36.100Z,27.02
2018-09-18T16:23:09.586Z,27.15
2018-09-18T16:25:42.552Z,27.38
2018-09-18T16:28:15.443Z,27.52
2018-09-18T16:30:48.063Z,27.46
2018-09-18T16:33:20.895Z,27.74
2018-09-18T16:35:54.430Z,28.23
2018-09-18T16:38:29.044Z,28.53
2018-09-18T16:41:04.030Z,28.89
2018-09-18T16:43:38.264Z,29.22
2018-09-18T16:46:12.394Z,29.60
2018-09-18T16:48:46.247Z,30.01
2018-09-18T16:51:20.248Z,30.48
2018-09-18T16:53:54.292Z,30.70
2018-09-18T16:56:27.952Z,30.94
2018-09-18T16:59:01.226Z,31.18
2018-09-18T17:01:36.739Z,31.48
2018-09-18T17:04:23.095Z,31.81
2018-09-18T17:06:58.194Z,32.21
2018-09-18T17:09:34.641Z,32.41
2018-09-18T17:12:11.973Z,32.73
2018-09-18T17:14:46.745Z,33.03
2018-09-18T17:17:22.510Z,33.34
2018-09-18T17:19:57.822Z,33.68
2018-09-18T17:22:36.332Z,34.03
2018-09-18T17:25:10.369Z,34.50
2018-09-18T17:27:43.563Z,34.92
2018-09-18T17:30:18.957Z,35.41
2018-09-18T17:32:52.776Z,35.83
2018-09-18T17:35:27.302Z,36.21
2018-09-18T17:38:02.618Z,36.55
2018-09-18T17:40:37.729Z,36.75
2018-09-18T17:43:11.830Z,37.12
2018-09-18T17:45:53.552Z,37.25
2018-09-18T17:48:31.198Z,37.41
2018-09-18T17:51:06.624Z,37.93
2018-09-18T17:53:43.061Z,38.38
2018-09-18T17:56:17.228Z,38.80
2018-09-18T17:59:01.972Z,39.08
2018-09-18T18:01:35.938Z,39.49
2018-09-18T18:04:11.182Z,39.80
2018-09-18T18:06:44.035Z,40.09
2018-09-18T18:09:24.714Z,40.46
2018-09-18T18:12:00.378Z,40.80
2018-09-18T18:14:33.057Z,41.39
2018-09-18T18:17:06.785Z,41.63
2018-09-18T18:19:43.526Z,41.79
2018-09-18T18:22:17.070Z,41.90
2018-09-18T18:24:51.979Z,42.24
2018-09-18T18:27:24.629Z,42.55
2018-09-18T18:30:00.299Z,42.56
2018-09-18T18:32:36.151Z,42.54
2018-09-18T18:35:09.545Z,42.53
2018-09-18T18:37:44.261Z,42.52
2018-09-18T18:40:18.074Z,42.62
2018-09-18T18:42:54.193Z,42.78
2018-09-18T18:45:29.980Z,42.89
2018-09-18T18:48:05.308Z,43.11
2018-09-18T18:50:38.104Z,43.40
2018-09-18T18:53:14.710Z,43.38
2018-09-18T18:55:47.333Z,43.33
2018-09-18T18:58:47.399Z,43.44
2018-09-18T19:01:22.485Z,43.47
2018-09-18T19:03:56.565Z,43.62
2018-09-18T19:06:29.963Z,43.79
2018-09-18T19:09:03.741Z,43.98
2018-09-18T19:11:40.299Z,44.18
2018-09-18T19:14:18.409Z,44.32
2018-09-18T19:16:55.878Z,44.48
2018-09-18T19:19:32.105Z,44.85
2018-09-18T19:22:09.918Z,45.55
2018-09-18T19:24:44.154Z,45.70
2018-09-18T19:27:18.238Z,46.46
2018-09-18T19:29:55.345Z,46.38
2018-09-18T19:32:30.739Z,46.61
2018-09-18T19:35:12.264Z,46.65
2018-09-18T19:37:49.508Z,46.94
2018-09-18T19:40:22.117Z,47.29
2018-09-18T19:42:55.744Z,47.66
2018-09-18T19:45:30.539Z,48.18
2018-09-18T19:48:03.119Z,48.77
2018-09-18T19:50:37.531Z,49.34
2018-09-18T19:53:10.198Z,49.63
2018-09-18T19:55:47.119Z,49.98
2018-09-18T19:58:20.628Z,50.38
2018-09-18T20:00:54.894Z,51.28
2018-09-18T20:03:28.108Z,51.60
2018-09-18T20:06:02.319Z,52.08
2018-09-18T20:08:39.492Z,52.58
2018-09-18T20:11:15.616Z,53.13
2018-09-18T20:13:50.061Z,53.20
2018-09-18T20:16:25.821Z,54.93
2018-09-18T20:19:04.082Z,54.75
2018-09-18T20:21:41.846Z,54.82
2018-09-18T20:24:19.417Z,55.00
2018-09-18T20:26:56.077Z,55.37
2018-09-18T20:29:33.589Z,55.43
2018-09-18T20:32:08.792Z,55.70
2018-09-18T20:34:44.516Z,56.28
2018-09-18T20:37:18.673Z,56.66
2018-09-18T20:39:51.686Z,57.37
2018-09-18T20:42:30.333Z,59.25
2018-09-18T20:45:09.972Z,59.96
2018-09-18T20:47:46.146Z,60.62
2018-09-18T20:50:21.756Z,61.00
2018-09-18T20:53:02.883Z,60.77
2018-09-18T20:55:37.534Z,60.76
2018-09-18T20:58:14.190Z,60.90
2018-09-18T21:00:47.237Z,62.36
2018-09-18T21:03:21.181Z,62.58
2018-09-18T21:05:54.849Z,62.38
2018-09-18T21:08:33.755Z,62.44
2018-09-18T21:11:08.250Z,63.00
2018-09-18T21:13:49.250Z,63.01
2018-09-18T21:16:22.956Z,64.02
2018-09-18T21:18:55.510Z,64.70
2018-09-18T21:21:29.548Z,64.88
2018-09-18T21:24:04.733Z,65.20
2018-09-18T21:26:41.093Z,66.05
2018-09-18T21:29:15.967Z,65.76
2018-09-18T21:31:50.123Z,66.86
2018-09-18T21:34:22.685Z,66.66
2018-09-18T21:36:55.929Z,66.85
2018-09-18T21:39:30.569Z,66.98
2018-09-18T21:42:04.669Z,67.73
2018-09-18T21:44:41.440Z,67.68
2018-09-18T21:47:15.475Z,67.68
2018-09-18T21:49:48.920Z,68.17
2018-09-18T21:52:24.078Z,68.05
2018-09-18T21:54:56.636Z,68.53
2018-09-18T21:57:29.852Z,69.26
2018-09-18T22:00:06.948Z,69.30
2018-09-18T22:02:39.575Z,69.57
2018-09-18T22:05:12.106Z,69.46
2018-09-18T22:07:47.918Z,69.55
2018-09-18T22:10:20.745Z,69.66
2018-09-18T22:12:54.167Z,69.96
2018-09-18T22:15:31.169Z,70.26
2018-09-18T22:18:10.906Z,70.54
2018-09-18T22:20:48.603Z,71.04
2018-09-18T22:23:23.975Z,72.44
2018-09-18T22:25:58.735Z,72.61
2018-09-18T22:28:33.188Z,73.31
2018-09-18T22:31:05.914Z,73.78
2018-09-18T22:33:39.833Z,74.67
2018-09-18T22:36:13.625Z,75.22
2018-09-18T22:38:47.319Z,74.68
2018-09-18T22:41:22.362Z,74.54
2018-09-18T22:43:54.918Z,74.46
2018-09-18T22:46:27.749Z,74.41
2018-09-18T22:49:01.788Z,74.28
2018-09-18T22:51:34.824Z,74.22
2018-09-18T22:54:07.413Z,74.25
2018-09-18T22:56:40.507Z,74.30
2018-09-18T22:59:13.080Z,74.36
2018-09-18T23:01:46.865Z,74.72
2018-09-18T23:04:20.790Z,74.23
2018-09-18T23:06:53.673Z,74.09
2018-09-18T23:09:27.018Z,74.23
2018-09-18T23:12:00.039Z,74.23
2018-09-18T23:14:33.709Z,74.25
2018-09-18T23:17:08.250Z,74.60
2018-09-18T23:19:41.860Z,74.76
2018-09-18T23:22:15.401Z,74.81
2018-09-18T23:24:48.832Z,74.89
2018-09-18T23:27:22.436Z,74.88
2018-09-18T23:29:56.576Z,75.68
2018-09-18T23:32:30.317Z,75.42
2018-09-18T23:35:03.229Z,75.31
2018-09-18T23:37:36.273Z,75.29
2018-09-18T23:40:10.298Z,75.26
2018-09-18T23:42:44.157Z,75.15
2018-09-18T23:45:16.543Z,75.09
2018-09-18T23:47:58.293Z,75.22
2018-09-18T23:50:30.907Z,75.41
2018-09-18T23:53:03.585Z,75.45
2018-09-18T23:55:36.378Z,75.94
2018-09-18T23:58:09.004Z,76.25
